OIAI  Shahid Asyaee Airport

Add Bookmark

Iran

Status
Operational
Latitude Longitude
32° 0' 8" N 49° 16' 13" E
32.002399 49.270401
Local (DST + 5) UTC (GMT + 4)
Oct 30, 2014 06:36 Oct 30, 2014 15:06
Sunrise-Sunset Local UTC
Begin Civil Twilight 06:01 02:31
Sunrise 06:26 02:56
Sunset 05:26 13:56
End Civil Twilight 05:51 14:21

Current Weather

METAR Observed VFR
OIAI 301400Z 29008KT 9999 SCT030CB SCT035 OVC080 25/08 Q1013 Thu, Oct 30, 2014 @ 14:00 UTC
(1 Hour, 6 Minutes ago)
Visual Flight Rules
Wind Visibility Clouds Conditions
290° at 8 knots (15 kph) 10 km or more
  • Scattered at 3,000' AGL
  • Scattered at 3,500' AGL
  • Overcast at 8,000' AGL
  • No significant weather
Temperatures Readings Precipitation
Current Temp 25°C (77°F)
Dewpoint 8°C (46°F)
Humidity 34%
Altimeter 29.91"Hg
Sea Level Pressure 1013mb
Field Elevation 1220.47'
None Recorded

Additional weather within a 92.6km radius of OIAI

Map ICAO Location
OIAW 88.2km S (213°)

24 Hour Weather History

Loading
-

24 Hour Weather Graphs

Loading
-

CheckWX.com is intended as a tool to help pilots better visualize weather data. It is not intended as a substitute for an official weather briefing obtained from a Flight Service Station. CheckWX.com does not meet the FAA requirements for an official pre-flight weather briefing. Therefore, it's important that pilots still call and obtain an official FSS pre-flight weather briefing.